createdAt,value
2017-06-12T00:00:20.512Z,1005.57
2017-06-12T00:01:29.477Z,1005.55
2017-06-12T00:02:38.963Z,1005.55
2017-06-12T00:03:47.922Z,1005.55
2017-06-12T00:04:57.440Z,1005.53
2017-06-12T00:06:06.455Z,1005.48
2017-06-12T00:07:16.262Z,1005.44
2017-06-12T00:08:25.745Z,1005.39
2017-06-12T00:09:35.417Z,1005.41
2017-06-12T00:10:44.376Z,1005.4
2017-06-12T00:11:54.458Z,1005.37
2017-06-12T00:13:03.475Z,1005.46
2017-06-12T00:14:13.330Z,1005.43
2017-06-12T00:15:22.339Z,1005.43
2017-06-12T00:16:31.974Z,1005.39
2017-06-12T00:17:41.045Z,1005.38
2017-06-12T00:18:50.663Z,1005.37
2017-06-12T00:19:59.622Z,1005.33
2017-06-12T00:21:09.350Z,1005.37
2017-06-12T00:22:18.305Z,1005.36
2017-06-12T00:23:28.133Z,1005.36
2017-06-12T00:24:37.833Z,1005.36
2017-06-12T00:25:48.400Z,1005.35
2017-06-12T00:26:58.339Z,1005.28
2017-06-12T00:28:08.558Z,1005.21
2017-06-12T00:29:18.733Z,1005.15
2017-06-12T00:30:28.210Z,1005.15
2017-06-12T00:31:37.263Z,1005.21
2017-06-12T00:32:46.442Z,1005.22
2017-06-12T00:33:56.039Z,1005.21
2017-06-12T00:35:05.000Z,1005.22
2017-06-12T00:36:14.310Z,1005.22
2017-06-12T00:37:23.496Z,1005.21
2017-06-12T00:38:32.505Z,1005.26
2017-06-12T00:39:42.177Z,1005.25
2017-06-12T00:40:51.295Z,1005.29
2017-06-12T00:42:00.722Z,1005.26
2017-06-12T00:43:09.717Z,1005.23
2017-06-12T00:44:19.450Z,1005.25
2017-06-12T00:45:28.409Z,1005.22
2017-06-12T00:46:37.440Z,1005.22
2017-06-12T00:47:46.968Z,1005.18
2017-06-12T00:48:56.014Z,1005.16
2017-06-12T00:50:05.786Z,1005.1
2017-06-12T00:51:14.769Z,1005.16
2017-06-12T00:52:24.639Z,1005.11
2017-06-12T00:53:33.601Z,1005.11
2017-06-12T00:54:43.556Z,1005.04
2017-06-12T00:55:52.595Z,1005.01
2017-06-12T00:57:02.128Z,1004.92
2017-06-12T00:58:11.238Z,1004.85
2017-06-12T00:59:20.775Z,1004.85
2017-06-12T01:00:29.828Z,1004.81
2017-06-12T01:01:39.808Z,1004.8
2017-06-12T01:02:48.855Z,1004.74
2017-06-12T01:03:58.686Z,1004.75
2017-06-12T01:05:07.774Z,1004.71
2017-06-12T01:06:17.560Z,1004.65
2017-06-12T01:07:26.564Z,1004.6
2017-06-12T01:08:36.095Z,1004.59
2017-06-12T01:09:45.053Z,1004.55
2017-06-12T01:10:55.654Z,1004.52
2017-06-12T01:12:05.449Z,1004.53
2017-06-12T01:13:14.414Z,1004.51
2017-06-12T01:14:24.112Z,1004.46
2017-06-12T01:15:33.806Z,1004.49
2017-06-12T01:16:42.763Z,1004.5
2017-06-12T01:17:52.007Z,1004.46
2017-06-12T01:19:01.622Z,1004.44
2017-06-12T01:20:10.579Z,1004.43
2017-06-12T01:21:20.527Z,1004.4
2017-06-12T01:22:29.486Z,1004.4
2017-06-12T01:23:39.102Z,1004.36
2017-06-12T01:24:48.062Z,1004.41
2017-06-12T01:25:57.994Z,1004.43
2017-06-12T01:27:06.956Z,1004.46
2017-06-12T01:28:17.017Z,1004.48
2017-06-12T01:29:25.972Z,1004.49
2017-06-12T01:30:35.860Z,1004.5
2017-06-12T01:31:44.818Z,1004.48
2017-06-12T01:32:54.588Z,1004.48
2017-06-12T01:34:03.573Z,1004.47
2017-06-12T01:35:13.483Z,1004.48
2017-06-12T01:36:22.439Z,1004.43
2017-06-12T01:37:32.322Z,1004.42
2017-06-12T01:38:41.313Z,1004.42
2017-06-12T01:39:51.313Z,1004.42
2017-06-12T01:41:00.357Z,1004.47
2017-06-12T01:42:09.710Z,1004.45
2017-06-12T01:43:18.677Z,1004.45
2017-06-12T01:44:28.622Z,1004.49
2017-06-12T01:45:37.787Z,1004.5
2017-06-12T01:46:47.530Z,1004.53
2017-06-12T01:47:56.486Z,1004.52
2017-06-12T01:49:06.129Z,1004.53
2017-06-12T01:50:15.091Z,1004.48
2017-06-12T01:51:24.849Z,1004.45
2017-06-12T01:52:33.808Z,1004.38
2017-06-12T01:53:43.849Z,1004.33
2017-06-12T01:54:52.805Z,1004.24
2017-06-12T01:56:02.714Z,1004.21
2017-06-12T01:57:11.671Z,1004.14
2017-06-12T01:58:23.363Z,1004.09
2017-06-12T01:59:32.323Z,1004.13
2017-06-12T02:00:42.662Z,1004.22
2017-06-12T02:01:51.619Z,1004.26
2017-06-12T02:03:02.467Z,1004.27
2017-06-12T02:04:12.772Z,1004.25
2017-06-12T02:05:22.341Z,1004.26
2017-06-12T02:06:32.496Z,1004.2
2017-06-12T02:07:41.500Z,1004.17
2017-06-12T02:08:51.218Z,1004.14
2017-06-12T02:10:00.299Z,1004.08
2017-06-12T02:11:10.141Z,1004.03
2017-06-12T02:12:19.103Z,1003.99
2017-06-12T02:13:28.807Z,1004.04
2017-06-12T02:14:38.747Z,1004.05
2017-06-12T02:15:47.905Z,1004.08
2017-06-12T02:16:56.917Z,1004.07
2017-06-12T02:18:08.174Z,1004.01
2017-06-12T02:19:17.165Z,1004.01
2017-06-12T02:20:26.830Z,1004
2017-06-12T02:21:35.786Z,1004.01
2017-06-12T02:22:46.169Z,1003.98
2017-06-12T02:23:55.130Z,1003.97
2017-06-12T02:25:04.775Z,1003.98
2017-06-12T02:26:14.068Z,1004
2017-06-12T02:27:23.915Z,1004.01
2017-06-12T02:28:33.567Z,1004.02
2017-06-12T02:29:42.893Z,1004.03
2017-06-12T02:30:51.851Z,1004.01
2017-06-12T02:32:01.891Z,1004.05
2017-06-12T02:33:10.849Z,1004.03
2017-06-12T02:34:19.857Z,1004.03
2017-06-12T02:35:28.818Z,1004.01
2017-06-12T02:36:37.786Z,1004.02
2017-06-12T02:37:46.748Z,1004.01
2017-06-12T02:38:55.791Z,1003.95
2017-06-12T02:40:04.747Z,1003.95
2017-06-12T02:41:13.732Z,1004
2017-06-12T02:42:22.691Z,1003.98
2017-06-12T02:43:31.649Z,1004
2017-06-12T02:44:40.609Z,1003.97
2017-06-12T02:45:49.566Z,1003.94
2017-06-12T02:46:58.530Z,1003.93
2017-06-12T02:48:07.492Z,1003.98
2017-06-12T02:49:16.449Z,1004.03
2017-06-12T02:50:25.408Z,1004.01
2017-06-12T02:51:34.368Z,1003.92
2017-06-12T02:52:43.330Z,1003.92
2017-06-12T02:53:52.288Z,1003.91
2017-06-12T02:55:01.333Z,1003.91
2017-06-12T02:56:10.294Z,1003.88
2017-06-12T02:57:19.288Z,1003.94
2017-06-12T02:58:28.249Z,1003.93
2017-06-12T02:59:37.214Z,1003.94
2017-06-12T03:00:46.174Z,1003.98
2017-06-12T03:01:55.130Z,1003.99
2017-06-12T03:03:04.463Z,1003.97
2017-06-12T03:04:13.424Z,1003.97
2017-06-12T03:05:22.386Z,1003.98
2017-06-12T03:06:31.342Z,1003.96
2017-06-12T03:07:40.300Z,1003.95
2017-06-12T03:08:49.258Z,1003.93
2017-06-12T03:09:58.216Z,1003.93
2017-06-12T03:11:07.173Z,1003.92
2017-06-12T03:12:16.223Z,1003.91
2017-06-12T03:13:25.185Z,1003.91
2017-06-12T03:14:34.197Z,1003.88
2017-06-12T03:15:43.159Z,1003.87
2017-06-12T03:16:52.117Z,1003.86
2017-06-12T03:18:01.077Z,1003.84
2017-06-12T03:19:10.038Z,1003.85
2017-06-12T03:20:19.001Z,1003.82
2017-06-12T03:21:28.047Z,1003.85
2017-06-12T03:22:37.006Z,1003.82
2017-06-12T03:23:45.967Z,1003.89
2017-06-12T03:24:54.927Z,1003.92
2017-06-12T03:26:03.893Z,1003.87
2017-06-12T03:27:12.939Z,1003.87
2017-06-12T03:28:21.904Z,1003.86
2017-06-12T03:29:30.867Z,1003.83
2017-06-12T03:30:39.828Z,1003.85
2017-06-12T03:31:48.793Z,1003.84
2017-06-12T03:32:57.749Z,1003.81
2017-06-12T03:34:06.708Z,1003.8
2017-06-12T03:35:15.664Z,1003.75
2017-06-12T03:36:24.628Z,1003.77
2017-06-12T03:37:33.677Z,1003.8
2017-06-12T03:38:42.633Z,1003.79
2017-06-12T03:39:51.590Z,1003.74
2017-06-12T03:41:00.631Z,1003.81
2017-06-12T03:42:09.594Z,1003.76
2017-06-12T03:43:18.610Z,1003.78
2017-06-12T03:44:27.571Z,1003.77
2017-06-12T03:45:36.531Z,1003.75
2017-06-12T03:46:45.487Z,1003.78
2017-06-12T03:47:54.443Z,1003.78
2017-06-12T03:49:03.449Z,1003.78
2017-06-12T03:50:15.441Z,1003.75
2017-06-12T03:51:24.402Z,1003.77
2017-06-12T03:52:33.374Z,1003.79
2017-06-12T03:53:42.364Z,1003.8
2017-06-12T03:54:51.574Z,1003.78
2017-06-12T03:56:00.624Z,1003.77
2017-06-12T03:57:09.588Z,1003.69
2017-06-12T03:58:18.549Z,1003.67
2017-06-12T03:59:27.504Z,1003.66
2017-06-12T04:00:36.709Z,1003.63
2017-06-12T04:01:45.666Z,1003.65
2017-06-12T04:02:54.717Z,1003.59
2017-06-12T04:04:03.675Z,1003.6
2017-06-12T04:05:12.639Z,1003.6
2017-06-12T04:06:21.597Z,1003.55
2017-06-12T04:07:30.557Z,1003.58
2017-06-12T04:08:39.515Z,1003.59
2017-06-12T04:09:48.471Z,1003.58
2017-06-12T04:10:57.429Z,1003.53
2017-06-12T04:12:06.392Z,1003.56
2017-06-12T04:13:15.351Z,1003.58
2017-06-12T04:14:24.633Z,1003.6
2017-06-12T04:15:33.592Z,1003.59
2017-06-12T04:16:42.553Z,1003.57
2017-06-12T04:17:51.512Z,1003.52
2017-06-12T04:19:00.469Z,1003.55
2017-06-12T04:20:09.432Z,1003.58
2017-06-12T04:21:18.390Z,1003.59
2017-06-12T04:22:27.348Z,1003.61
2017-06-12T04:23:36.310Z,1003.68
2017-06-12T04:24:45.266Z,1003.74
2017-06-12T04:25:54.225Z,1003.75
2017-06-12T04:27:03.190Z,1003.8
2017-06-12T04:28:12.151Z,1003.78
2017-06-12T04:29:21.113Z,1003.8
2017-06-12T04:30:30.070Z,1003.78
2017-06-12T04:31:39.031Z,1003.79
2017-06-12T04:32:47.992Z,1003.83
2017-06-12T04:33:56.947Z,1003.91
2017-06-12T04:35:05.992Z,1003.98
2017-06-12T04:36:15.122Z,1004.01
2017-06-12T04:37:24.080Z,1004.03
2017-06-12T04:38:33.039Z,1003.99
2017-06-12T04:39:41.999Z,1004.08
2017-06-12T04:40:51.006Z,1004.01
2017-06-12T04:42:00.138Z,1004.02
2017-06-12T04:43:09.096Z,1003.97
2017-06-12T04:44:18.057Z,1004
2017-06-12T04:45:27.017Z,1003.97
2017-06-12T04:46:36.297Z,1003.95
2017-06-12T04:47:45.257Z,1003.93
2017-06-12T04:48:54.214Z,1003.87
2017-06-12T04:50:03.265Z,1003.85
2017-06-12T04:51:12.316Z,1003.83
2017-06-12T04:52:21.275Z,1003.84
2017-06-12T04:53:30.242Z,1003.85
2017-06-12T04:54:39.206Z,1003.93
2017-06-12T04:55:48.166Z,1004
2017-06-12T04:56:57.124Z,1003.94
2017-06-12T04:58:06.130Z,1004.03
2017-06-12T04:59:15.092Z,1004.1
2017-06-12T05:00:24.050Z,1004.17
2017-06-12T05:01:33.013Z,1004.1
2017-06-12T05:02:42.002Z,1004.18
2017-06-12T05:03:50.957Z,1004.26
2017-06-12T05:04:59.916Z,1004.17
2017-06-12T05:06:09.210Z,1004.14
2017-06-12T05:07:18.492Z,1004.16
2017-06-12T05:08:27.451Z,1004.21
2017-06-12T05:09:36.409Z,1004.2
2017-06-12T05:10:45.368Z,1004.21
2017-06-12T05:11:54.328Z,1004.19
2017-06-12T05:13:03.281Z,1004.2
2017-06-12T05:14:12.240Z,1004.18
2017-06-12T05:15:21.197Z,1004.2
2017-06-12T05:16:30.158Z,1004.16
2017-06-12T05:17:39.116Z,1004.21
2017-06-12T05:18:48.078Z,1004.17
2017-06-12T05:19:57.043Z,1004.17
2017-06-12T05:21:06.009Z,1004.1
2017-06-12T05:22:14.970Z,1004.1
2017-06-12T05:23:23.925Z,1004.12
2017-06-12T05:24:32.885Z,1004.15
2017-06-12T05:25:41.845Z,1004.21
2017-06-12T05:26:50.838Z,1004.19
2017-06-12T05:27:59.801Z,1004.17
2017-06-12T05:29:08.786Z,1004.2
2017-06-12T05:30:17.743Z,1004.25
2017-06-12T05:31:26.702Z,1004.22
2017-06-12T05:32:35.715Z,1004.19
2017-06-12T05:33:44.671Z,1004.16
2017-06-12T05:34:53.628Z,1004.18
2017-06-12T05:36:02.593Z,1004.2
2017-06-12T05:37:11.551Z,1004.25
2017-06-12T05:38:20.511Z,1004.31
2017-06-12T05:39:29.469Z,1004.32
2017-06-12T05:40:38.430Z,1004.36
2017-06-12T05:41:47.392Z,1004.32
2017-06-12T05:42:56.349Z,1004.22
2017-06-12T05:44:05.311Z,1004.21
2017-06-12T05:45:14.271Z,1004.25
2017-06-12T05:46:23.226Z,1004.38
2017-06-12T05:47:32.186Z,1004.35
2017-06-12T05:48:41.136Z,1004.36
2017-06-12T05:49:50.182Z,1004.3
2017-06-12T05:50:59.141Z,1004.34
2017-06-12T05:52:08.104Z,1004.4
2017-06-12T05:53:17.093Z,1004.41
2017-06-12T05:54:26.051Z,1004.43
2017-06-12T05:55:35.060Z,1004.45
2017-06-12T05:56:44.018Z,1004.38
2017-06-12T05:57:53.059Z,1004.35
2017-06-12T05:59:02.044Z,1004.38
2017-06-12T06:00:11.004Z,1004.37
2017-06-12T06:01:19.967Z,1004.4
2017-06-12T06:02:28.931Z,1004.48
2017-06-12T06:03:37.896Z,1004.36
2017-06-12T06:04:46.859Z,1004.42
2017-06-12T06:05:55.819Z,1004.47
2017-06-12T06:07:04.778Z,1004.52
2017-06-12T06:08:13.737Z,1004.51
2017-06-12T06:09:22.693Z,1004.52
2017-06-12T06:10:31.651Z,1004.53
2017-06-12T06:11:40.610Z,1004.5
2017-06-12T06:12:49.572Z,1004.55
2017-06-12T06:13:58.529Z,1004.59
2017-06-12T06:15:07.493Z,1004.62
2017-06-12T06:16:16.453Z,1004.64
2017-06-12T06:17:25.409Z,1004.58
2017-06-12T06:18:34.365Z,1004.68
2017-06-12T06:19:43.334Z,1004.68
2017-06-12T06:20:52.621Z,1004.52
2017-06-12T06:22:01.578Z,1004.72
2017-06-12T06:23:10.532Z,1004.68
2017-06-12T06:24:19.488Z,1004.62
2017-06-12T06:25:28.450Z,1004.63
2017-06-12T06:26:37.413Z,1004.57
2017-06-12T06:27:46.391Z,1004.58
2017-06-12T06:28:55.357Z,1004.6
2017-06-12T06:30:04.321Z,1004.57
2017-06-12T06:31:13.603Z,1004.59
2017-06-12T06:32:22.561Z,1004.6
2017-06-12T06:33:31.534Z,1004.59
2017-06-12T06:34:40.491Z,1004.56
2017-06-12T06:35:49.801Z,1004.61
2017-06-12T06:36:59.475Z,1004.62
2017-06-12T06:38:08.547Z,1004.71
2017-06-12T06:39:17.507Z,1004.72
2017-06-12T06:40:26.465Z,1004.77
2017-06-12T06:41:35.558Z,1004.85
2017-06-12T06:42:44.523Z,1004.83
2017-06-12T06:43:53.483Z,1004.84
2017-06-12T06:45:02.444Z,1004.88
2017-06-12T06:46:11.407Z,1004.91
2017-06-12T06:47:20.373Z,1004.91
2017-06-12T06:48:29.332Z,1004.87
2017-06-12T06:49:38.377Z,1004.83
2017-06-12T06:50:47.335Z,1004.78
2017-06-12T06:51:56.382Z,1004.78
2017-06-12T06:53:05.345Z,1004.84
2017-06-12T06:54:14.606Z,1004.72
2017-06-12T06:55:23.570Z,1004.77
2017-06-12T06:56:32.534Z,1004.83
2017-06-12T06:57:41.704Z,1004.77
2017-06-12T06:58:52.365Z,1004.8
2017-06-12T07:00:01.326Z,1004.78
2017-06-12T07:01:10.292Z,1004.81
2017-06-12T07:02:19.255Z,1004.81
2017-06-12T07:03:28.219Z,1004.86
2017-06-12T07:04:37.477Z,1004.93
2017-06-12T07:05:46.825Z,1004.95
2017-06-12T07:06:56.168Z,1005.04
2017-06-12T07:08:05.133Z,1004.95
2017-06-12T07:09:14.093Z,1004.95
2017-06-12T07:10:23.102Z,1004.92
2017-06-12T07:11:32.203Z,1004.92
2017-06-12T07:12:41.249Z,1004.89
2017-06-12T07:13:50.518Z,1004.87
2017-06-12T07:14:59.553Z,1004.95
2017-06-12T07:16:08.673Z,1004.93
2017-06-12T07:17:17.652Z,1004.87
2017-06-12T07:18:26.848Z,1004.86
2017-06-12T07:19:35.845Z,1004.89
2017-06-12T07:20:44.888Z,1004.84
2017-06-12T07:21:54.034Z,1004.83
2017-06-12T07:23:03.067Z,1004.84
2017-06-12T07:24:12.088Z,1004.89
2017-06-12T07:25:21.078Z,1004.87
2017-06-12T07:26:30.115Z,1004.95
2017-06-12T07:27:39.275Z,1005.03
2017-06-12T07:28:48.703Z,1005.01
2017-06-12T07:29:57.664Z,1005.03
2017-06-12T07:31:06.951Z,1004.99
2017-06-12T07:32:16.234Z,1004.96
2017-06-12T07:33:25.594Z,1004.96
2017-06-12T07:34:34.577Z,1004.92
2017-06-12T07:35:43.572Z,1004.94
2017-06-12T07:36:52.537Z,1004.94
2017-06-12T07:38:01.558Z,1004.96
2017-06-12T07:39:10.786Z,1004.99
2017-06-12T07:40:19.741Z,1005.01
2017-06-12T07:41:28.941Z,1004.98
2017-06-12T07:42:37.903Z,1004.99
2017-06-12T07:43:47.121Z,1004.97
2017-06-12T07:44:57.435Z,1005.01
2017-06-12T07:46:11.336Z,1004.93
2017-06-12T07:47:20.356Z,1005.06
2017-06-12T07:48:29.343Z,1005.02
2017-06-12T07:49:38.302Z,1005.04
2017-06-12T07:50:47.377Z,1005.05
2017-06-12T07:51:56.452Z,1005.03
2017-06-12T07:53:05.501Z,1005
2017-06-12T07:54:14.547Z,1005.09
2017-06-12T07:55:23.517Z,1005.07
2017-06-12T07:56:32.527Z,1005.04
2017-06-12T07:57:41.540Z,1005.15
2017-06-12T07:58:50.528Z,1005.15
2017-06-12T07:59:59.493Z,1005.1
2017-06-12T08:01:08.511Z,1005.17
2017-06-12T08:02:17.822Z,1005.13
2017-06-12T08:03:26.891Z,1005.1
2017-06-12T08:04:35.900Z,1005.12
2017-06-12T08:05:45.013Z,1005.01
2017-06-12T08:06:54.075Z,1005.04
2017-06-12T08:08:03.083Z,1005.07
2017-06-12T08:09:12.146Z,1005.14
2017-06-12T08:10:21.105Z,1005.1
2017-06-12T08:11:30.067Z,1005.14
2017-06-12T08:12:39.022Z,1005.03
2017-06-12T08:13:47.983Z,1005.12
2017-06-12T08:14:56.943Z,1005.1
2017-06-12T08:16:05.905Z,1005.05
2017-06-12T08:17:14.876Z,1005.13
2017-06-12T08:18:23.864Z,1005.16
2017-06-12T08:19:32.871Z,1005.11
2017-06-12T08:20:41.833Z,1005.05
2017-06-12T08:21:50.794Z,1005.13
2017-06-12T08:22:59.987Z,1005.08
2017-06-12T08:24:08.948Z,1005.02
2017-06-12T08:25:17.906Z,1005.06
2017-06-12T08:26:26.870Z,1005.17
2017-06-12T08:27:35.833Z,1005.11
2017-06-12T08:28:45.110Z,1005.06
2017-06-12T08:29:54.071Z,1005.04
2017-06-12T08:31:03.080Z,1005.07
2017-06-12T08:32:12.128Z,1005.12
2017-06-12T08:33:21.462Z,1005.02
2017-06-12T08:34:30.426Z,1005.01
2017-06-12T08:35:39.708Z,1005.16
2017-06-12T08:36:48.753Z,1005
2017-06-12T08:37:57.709Z,1005.07
2017-06-12T08:39:06.757Z,1005.11
2017-06-12T08:40:15.720Z,1005.05
2017-06-12T08:41:24.681Z,1005.13
2017-06-12T08:42:33.647Z,1005.11
2017-06-12T08:43:42.619Z,1005.12
2017-06-12T08:44:51.671Z,1005.37
2017-06-12T08:46:00.635Z,1005.19
2017-06-12T08:47:09.595Z,1005.26
2017-06-12T08:48:18.558Z,1005.23
2017-06-12T08:49:27.524Z,1005.22
2017-06-12T08:50:36.640Z,1005.26
2017-06-12T08:51:45.723Z,1005.2
2017-06-12T08:52:54.704Z,1005.2
2017-06-12T08:54:03.737Z,1005.19
2017-06-12T08:55:12.724Z,1005.06
2017-06-12T08:56:21.711Z,1005.18
2017-06-12T08:57:30.696Z,1005.14
2017-06-12T08:58:39.675Z,1005.19
2017-06-12T08:59:48.711Z,1005.28
2017-06-12T09:00:57.786Z,1005.21
2017-06-12T09:02:06.855Z,1005.26
2017-06-12T09:03:15.843Z,1005.27
2017-06-12T09:04:24.833Z,1005.25
2017-06-12T09:05:33.809Z,1005.31
2017-06-12T09:06:42.843Z,1005.38
2017-06-12T09:07:51.826Z,1005.37
2017-06-12T09:09:00.903Z,1005.36
2017-06-12T09:10:09.944Z,1005.34
2017-06-12T09:11:18.923Z,1005.31
2017-06-12T09:12:27.907Z,1005.44
2017-06-12T09:13:36.893Z,1005.48
2017-06-12T09:14:45.876Z,1005.36
2017-06-12T09:15:54.865Z,1005.41
2017-06-12T09:17:03.898Z,1005.41
2017-06-12T09:18:12.904Z,1005.42
2017-06-12T09:19:21.883Z,1005.38
2017-06-12T09:20:30.866Z,1005.35
2017-06-12T09:21:40.787Z,1005.37
2017-06-12T09:22:52.969Z,1005.53
2017-06-12T09:24:10.595Z,1005.46
2017-06-12T09:25:19.558Z,1005.62
2017-06-12T09:26:28.519Z,1005.56
2017-06-12T09:27:37.480Z,1005.58
2017-06-12T09:28:46.440Z,1005.58
2017-06-12T09:29:55.741Z,1005.6
2017-06-12T09:31:04.789Z,1005.66
2017-06-12T09:32:13.747Z,1005.72
2017-06-12T09:33:22.702Z,1005.75
2017-06-12T09:34:31.664Z,1005.65
2017-06-12T09:35:40.709Z,1005.68
2017-06-12T09:36:49.714Z,1005.73
2017-06-12T09:37:58.715Z,1005.73
2017-06-12T09:39:07.826Z,1005.74
2017-06-12T09:40:16.786Z,1005.75
2017-06-12T09:41:25.752Z,1005.72
2017-06-12T09:42:34.708Z,1005.81
2017-06-12T09:43:43.668Z,1005.78
2017-06-12T09:44:52.635Z,1005.79
2017-06-12T09:46:01.594Z,1005.63
2017-06-12T09:47:10.553Z,1005.76
2017-06-12T09:48:19.518Z,1005.81
2017-06-12T09:49:28.799Z,1005.8
2017-06-12T09:50:37.757Z,1005.79
2017-06-12T09:51:46.713Z,1005.74
2017-06-12T09:52:55.680Z,1005.78
2017-06-12T09:54:04.648Z,1005.75
2017-06-12T09:55:13.606Z,1005.76
2017-06-12T09:56:22.568Z,1005.71
2017-06-12T09:57:31.581Z,1005.57
2017-06-12T09:58:40.545Z,1005.67
2017-06-12T09:59:49.683Z,1005.75
2017-06-12T10:00:58.735Z,1005.75
2017-06-12T10:02:07.779Z,1005.8
2017-06-12T10:03:16.739Z,1005.77
2017-06-12T10:04:25.702Z,1005.75
2017-06-12T10:05:34.671Z,1005.79
2017-06-12T10:06:43.635Z,1005.87
2017-06-12T10:07:52.599Z,1005.7
2017-06-12T10:09:01.971Z,1005.81
2017-06-12T10:10:10.933Z,1005.83
2017-06-12T10:11:19.897Z,1005.88
2017-06-12T10:12:28.858Z,1005.83
2017-06-12T10:13:37.824Z,1005.89
2017-06-12T10:14:46.785Z,1005.88
2017-06-12T10:15:55.836Z,1005.92
2017-06-12T10:17:04.793Z,1005.82
2017-06-12T10:18:13.823Z,1005.85
2017-06-12T10:19:22.781Z,1005.81
2017-06-12T10:20:31.829Z,1005.84
2017-06-12T10:21:40.787Z,1005.9
2017-06-12T10:22:49.745Z,1005.86
2017-06-12T10:23:58.709Z,1005.79
2017-06-12T10:25:07.667Z,1005.88
2017-06-12T10:26:16.681Z,1005.9
2017-06-12T10:27:25.644Z,1005.87
2017-06-12T10:28:34.605Z,1005.96
2017-06-12T10:29:43.569Z,1005.84
2017-06-12T10:30:52.538Z,1005.88
2017-06-12T10:32:01.505Z,1005.93
2017-06-12T10:33:10.469Z,1005.74
2017-06-12T10:34:19.433Z,1005.89
2017-06-12T10:35:28.395Z,1005.89
2017-06-12T10:36:37.353Z,1005.9
2017-06-12T10:37:46.364Z,1005.9
2017-06-12T10:38:55.659Z,1005.91
2017-06-12T10:40:04.625Z,1006.08
2017-06-12T10:41:13.914Z,1005.95
2017-06-12T10:42:22.872Z,1005.94
2017-06-12T10:43:31.828Z,1005.89
2017-06-12T10:44:40.790Z,1005.93
2017-06-12T10:45:49.775Z,1005.94
2017-06-12T10:46:58.831Z,1006.05
2017-06-12T10:48:07.797Z,1006.11
2017-06-12T10:49:16.843Z,1006.1
2017-06-12T10:50:25.889Z,1005.99
2017-06-12T10:51:34.848Z,1005.99
2017-06-12T10:52:43.806Z,1005.98
2017-06-12T10:53:52.766Z,1005.94
2017-06-12T10:55:01.722Z,1006.06
2017-06-12T10:56:10.683Z,1005.99
2017-06-12T10:57:19.643Z,1005.95
2017-06-12T10:58:28.608Z,1006.08
2017-06-12T10:59:37.571Z,1006.08
2017-06-12T11:00:46.904Z,1006.04
2017-06-12T11:01:55.866Z,1006.1
2017-06-12T11:03:04.920Z,1006.09
2017-06-12T11:04:13.885Z,1006.15
2017-06-12T11:05:22.850Z,1006.09
2017-06-12T11:06:31.875Z,1006.19
2017-06-12T11:07:40.926Z,1006.18
2017-06-12T11:08:49.975Z,1006.17
2017-06-12T11:09:58.936Z,1006.13
2017-06-12T11:11:07.900Z,1006.27
2017-06-12T11:12:16.916Z,1006.24
2017-06-12T11:13:25.884Z,1006.31
2017-06-12T11:14:34.845Z,1006.28
2017-06-12T11:15:43.805Z,1006.26
2017-06-12T11:16:52.768Z,1006.22
2017-06-12T11:18:01.730Z,1006.16
2017-06-12T11:19:10.689Z,1006.19
2017-06-12T11:20:19.646Z,1006.13
2017-06-12T11:21:28.603Z,1006.21
2017-06-12T11:22:37.561Z,1006.17
2017-06-12T11:23:46.518Z,1006.17
2017-06-12T11:24:55.569Z,1006.23
2017-06-12T11:26:04.530Z,1006.2
2017-06-12T11:27:13.497Z,1006.19
2017-06-12T11:28:22.459Z,1006.22
2017-06-12T11:29:31.465Z,1006.36
2017-06-12T11:30:40.425Z,1006.23
2017-06-12T11:31:49.387Z,1006.25
2017-06-12T11:32:58.354Z,1006.24
2017-06-12T11:34:07.317Z,1006.31
2017-06-12T11:35:16.311Z,1006.28
2017-06-12T11:36:25.278Z,1006.29
2017-06-12T11:37:34.238Z,1006.23
2017-06-12T11:38:43.200Z,1006.27
2017-06-12T11:39:52.573Z,1006.27
2017-06-12T11:41:01.536Z,1006.28
2017-06-12T11:42:10.509Z,1006.2
2017-06-12T11:43:19.767Z,1006.27
2017-06-12T11:44:28.741Z,1006.25
2017-06-12T11:45:37.812Z,1006.3
2017-06-12T11:46:46.843Z,1006.29
2017-06-12T11:47:55.802Z,1006.3
2017-06-12T11:49:04.761Z,1006.29
2017-06-12T11:50:13.726Z,1006.44
2017-06-12T11:51:22.708Z,1006.25
2017-06-12T11:52:31.753Z,1006.32
2017-06-12T11:53:40.715Z,1006.31
2017-06-12T11:54:49.677Z,1006.36
2017-06-12T11:55:58.673Z,1006.41
2017-06-12T11:57:07.637Z,1006.42
2017-06-12T11:58:16.652Z,1006.43
2017-06-12T11:59:25.615Z,1006.55
2017-06-12T12:00:34.661Z,1006.52
2017-06-12T12:01:43.617Z,1006.46
2017-06-12T12:02:52.581Z,1006.48
2017-06-12T12:04:01.542Z,1006.46
2017-06-12T12:05:10.503Z,1006.51
2017-06-12T12:06:19.493Z,1006.48
2017-06-12T12:07:28.455Z,1006.57
2017-06-12T12:08:37.415Z,1006.65
2017-06-12T12:09:46.373Z,1006.63
2017-06-12T12:10:55.420Z,1006.61
2017-06-12T12:12:04.382Z,1006.63
2017-06-12T12:13:13.343Z,1006.65
2017-06-12T12:14:22.304Z,1006.62
2017-06-12T12:15:31.310Z,1006.66
2017-06-12T12:16:40.361Z,1006.61
2017-06-12T12:17:49.319Z,1006.62
2017-06-12T12:18:58.278Z,1006.56
2017-06-12T12:20:07.327Z,1006.66
2017-06-12T12:21:16.295Z,1006.67
2017-06-12T12:22:25.257Z,1006.67
2017-06-12T12:23:34.535Z,1006.8
2017-06-12T12:24:43.582Z,1006.78
2017-06-12T12:25:52.545Z,1006.81
2017-06-12T12:27:01.511Z,1006.75
2017-06-12T12:28:10.473Z,1006.75
2017-06-12T12:29:19.437Z,1006.75
2017-06-12T12:30:28.402Z,1006.75
2017-06-12T12:31:37.366Z,1006.76
2017-06-12T12:32:46.417Z,1006.83
2017-06-12T12:33:55.385Z,1006.8
2017-06-12T12:35:04.346Z,1006.8
2017-06-12T12:36:13.304Z,1006.79
2017-06-12T12:37:22.268Z,1006.85
2017-06-12T12:38:31.280Z,1006.74
2017-06-12T12:39:40.265Z,1006.7
2017-06-12T12:40:49.229Z,1006.7
2017-06-12T12:41:58.199Z,1006.7
2017-06-12T12:43:07.160Z,1006.65
2017-06-12T12:44:16.128Z,1006.64
2017-06-12T12:45:25.098Z,1006.76
2017-06-12T12:46:34.056Z,1006.76
2017-06-12T12:47:43.017Z,1006.76
2017-06-12T12:48:52.057Z,1006.69
2017-06-12T12:50:01.176Z,1006.68
2017-06-12T12:51:10.231Z,1006.72
2017-06-12T12:52:19.203Z,1006.73
2017-06-12T12:53:28.242Z,1006.75
2017-06-12T12:54:38.626Z,1006.81
2017-06-12T12:55:47.634Z,1006.89
2017-06-12T12:56:56.686Z,1006.82
2017-06-12T12:58:05.644Z,1006.82
2017-06-12T12:59:14.601Z,1006.82
2017-06-12T13:00:23.651Z,1006.93
2017-06-12T13:01:32.612Z,1006.88
2017-06-12T13:02:41.575Z,1006.89
2017-06-12T13:03:50.549Z,1006.79
2017-06-12T13:04:59.540Z,1006.79
2017-06-12T13:06:08.527Z,1006.86
2017-06-12T13:07:17.560Z,1006.91
2017-06-12T13:08:26.545Z,1006.8
2017-06-12T13:09:35.532Z,1006.84
2017-06-12T13:10:44.840Z,1006.81
2017-06-12T13:11:53.822Z,1006.91
2017-06-12T13:13:02.802Z,1006.96
2017-06-12T13:14:11.783Z,1006.95
2017-06-12T13:15:20.768Z,1006.76
2017-06-12T13:16:29.808Z,1006.92
2017-06-12T13:17:38.794Z,1006.94
2017-06-12T13:18:47.818Z,1006.87
2017-06-12T13:19:56.808Z,1007.01
2017-06-12T13:21:05.795Z,1006.96
2017-06-12T13:22:14.783Z,1007.03
2017-06-12T13:23:23.788Z,1007.08
2017-06-12T13:24:32.819Z,1007.06
2017-06-12T13:25:41.807Z,1007.03
2017-06-12T13:26:50.798Z,1007.03
2017-06-12T13:27:59.869Z,1007.03
2017-06-12T13:29:08.860Z,1007.09
2017-06-12T13:30:17.897Z,1007.11
2017-06-12T13:31:26.880Z,1007.13
2017-06-12T13:32:36.187Z,1007.1
2017-06-12T13:33:45.273Z,1007.1
2017-06-12T13:34:54.257Z,1007.06
2017-06-12T13:36:03.356Z,1007.04
2017-06-12T13:37:12.335Z,1007.03
2017-06-12T13:38:21.318Z,1006.97
2017-06-12T13:39:30.312Z,1007.01
2017-06-12T13:40:39.302Z,1007.12
2017-06-12T13:41:48.366Z,1007.01
2017-06-12T13:42:57.375Z,1006.8
2017-06-12T13:44:06.363Z,1006.85
2017-06-12T13:45:15.349Z,1006.9
2017-06-12T13:46:24.330Z,1007.02
2017-06-12T13:47:33.369Z,1007.11
2017-06-12T13:48:42.352Z,1007.1
2017-06-12T13:49:51.331Z,1007.09
2017-06-12T13:51:00.316Z,1007.2
2017-06-12T13:52:09.309Z,1007.05
2017-06-12T13:53:18.344Z,1007.04
2017-06-12T13:54:27.327Z,1007.08
2017-06-12T13:55:36.308Z,1007.14
2017-06-12T13:56:45.290Z,1007.01
2017-06-12T13:57:54.276Z,1007.09
2017-06-12T13:59:03.271Z,1007.19